Keg River, Canada
Current Conditions -  °F | °C
As of 4:00 AM on Sunday 21 Dec 2014 (Local Time) from CYOJ Reporting Station
Overcast Overcast  
Wind Chill: -1°   Ceiling: 1000
Heat Index:   Visibility: 9mi
Dew Point:   Wind: 6mph
Humidity: 85%   Direction: 350°N
Pressure: 29.36"   Gusts: NA
Location:  57.8°N, 117.87°W
Report Text: CYOJ 211100Z AUTO 35005KT 9SM OVC010 M13/M15 A2936 RMK SLP974
Loading
Personal Weather Stations






























Interactive Weather Map New forecast layout! Learn more

10-Day Weather Forecast

Advertisements
Track Severe Weather on mobile